Ellery, Illinois
Current Conditions -  °F | °C
As of 3:35 PM on Friday 28 Nov 2014 (Local Time) from KFWC Reporting Station
Clear Clear  
Wind Chill: 37°   Ceiling: Unl
Heat Index: 44°   Visibility: 10mi
Dew Point: 32°   Wind: 15mph
Humidity: 63%   Direction: 170°S
Pressure: 30.06"   Gusts: 21mph
Location:  38.35°N, 88.15°W
Report Text: KFWC 282135Z AUTO 17013G18KT 10SM CLR 07/00 A3006 RMK AO1 T00661001
Loading
Personal Weather Stations






























Interactive Weather Map New forecast layout! Learn more

10-Day Weather Forecast

Advertisements
Track Severe Weather on mobile